sensor_id;sensor_type;location;lat;lon;timestamp;P1;durP1;ratioP1;P2;durP2;ratioP2
72051;SDS011;68254;63.178;14.652;2024-03-29T00:01:34;18.33;;;9.23;;
72051;SDS011;68254;63.178;14.652;2024-03-29T00:06:29;13.77;;;8.60;;
72051;SDS011;68254;63.178;14.652;2024-03-29T00:08:55;15.33;;;8.90;;
72051;SDS011;68254;63.178;14.652;2024-03-29T00:11:20;13.60;;;8.70;;
72051;SDS011;68254;63.178;14.652;2024-03-29T00:13:46;15.10;;;8.73;;
72051;SDS011;68254;63.178;14.652;2024-03-29T00:16:12;16.90;;;9.30;;
72051;SDS011;68254;63.178;14.652;2024-03-29T00:18:44;15.70;;;9.03;;
72051;SDS011;68254;63.178;14.652;2024-03-29T00:21:10;16.90;;;8.97;;
72051;SDS011;68254;63.178;14.652;2024-03-29T00:23:37;15.03;;;8.73;;
72051;SDS011;68254;63.178;14.652;2024-03-29T00:26:29;14.90;;;8.13;;
72051;SDS011;68254;63.178;14.652;2024-03-29T00:29:08;14.33;;;8.60;;
72051;SDS011;68254;63.178;14.652;2024-03-29T00:31:42;17.30;;;8.90;;
72051;SDS011;68254;63.178;14.652;2024-03-29T00:34:19;15.57;;;8.50;;
72051;SDS011;68254;63.178;14.652;2024-03-29T00:39:37;12.63;;;7.70;;
72051;SDS011;68254;63.178;14.652;2024-03-29T00:42:32;12.93;;;7.70;;
72051;SDS011;68254;63.178;14.652;2024-03-29T00:45:29;15.23;;;8.32;;
72051;SDS011;68254;63.178;14.652;2024-03-29T00:47:55;12.47;;;7.20;;
72051;SDS011;68254;63.178;14.652;2024-03-29T00:50:36;13.73;;;7.63;;
72051;SDS011;68254;63.178;14.652;2024-03-29T00:53:04;12.60;;;8.80;;
72051;SDS011;68254;63.178;14.652;2024-03-29T00:55:53;13.17;;;7.63;;
72051;SDS011;68254;63.178;14.652;2024-03-29T00:58:22;14.37;;;8.43;;
72051;SDS011;68254;63.178;14.652;2024-03-29T01:00:57;13.43;;;7.60;;
72051;SDS011;68254;63.178;14.652;2024-03-29T01:03:22;16.03;;;8.37;;
72051;SDS011;68254;63.178;14.652;2024-03-29T01:05:49;16.80;;;8.20;;
72051;SDS011;68254;63.178;14.652;2024-03-29T01:08:15;18.80;;;9.07;;
72051;SDS011;68254;63.178;14.652;2024-03-29T01:10:40;14.50;;;8.27;;
72051;SDS011;68254;63.178;14.652;2024-03-29T01:13:06;16.10;;;11.23;;
72051;SDS011;68254;63.178;14.652;2024-03-29T01:15:59;15.93;;;8.53;;
72051;SDS011;68254;63.178;14.652;2024-03-29T01:18:24;21.63;;;9.53;;
72051;SDS011;68254;63.178;14.652;2024-03-29T01:20:54;16.03;;;8.20;;
72051;SDS011;68254;63.178;14.652;2024-03-29T01:23:29;18.20;;;9.47;;
72051;SDS011;68254;63.178;14.652;2024-03-29T01:26:09;17.53;;;7.47;;
72051;SDS011;68254;63.178;14.652;2024-03-29T01:28:37;14.50;;;7.88;;
72051;SDS011;68254;63.178;14.652;2024-03-29T01:31:04;15.70;;;7.37;;
72051;SDS011;68254;63.178;14.652;2024-03-29T01:33:37;14.67;;;8.03;;
72051;SDS011;68254;63.178;14.652;2024-03-29T01:36:09;17.70;;;8.20;;
72051;SDS011;68254;63.178;14.652;2024-03-29T01:38:35;18.37;;;9.40;;
72051;SDS011;68254;63.178;14.652;2024-03-29T01:41:00;15.50;;;6.73;;
72051;SDS011;68254;63.178;14.652;2024-03-29T01:43:26;15.80;;;7.57;;
72051;SDS011;68254;63.178;14.652;2024-03-29T01:45:55;17.10;;;9.13;;
72051;SDS011;68254;63.178;14.652;2024-03-29T01:48:33;16.00;;;9.02;;
72051;SDS011;68254;63.178;14.652;2024-03-29T01:51:09;15.83;;;7.77;;
72051;SDS011;68254;63.178;14.652;2024-03-29T01:53:43;16.43;;;8.03;;
72051;SDS011;68254;63.178;14.652;2024-03-29T01:56:09;15.33;;;8.23;;
72051;SDS011;68254;63.178;14.652;2024-03-29T01:58:36;12.07;;;6.60;;
72051;SDS011;68254;63.178;14.652;2024-03-29T02:01:04;12.70;;;6.28;;
72051;SDS011;68254;63.178;14.652;2024-03-29T02:03:32;13.20;;;8.90;;
72051;SDS011;68254;63.178;14.652;2024-03-29T02:06:13;11.17;;;7.37;;
72051;SDS011;68254;63.178;14.652;2024-03-29T02:08:53;11.90;;;6.83;;
72051;SDS011;68254;63.178;14.652;2024-03-29T02:11:19;8.70;;;5.73;;
72051;SDS011;68254;63.178;14.652;2024-03-29T02:13:45;12.00;;;7.47;;
72051;SDS011;68254;63.178;14.652;2024-03-29T02:16:12;13.43;;;5.87;;
72051;SDS011;68254;63.178;14.652;2024-03-29T02:21:12;9.97;;;6.50;;
72051;SDS011;68254;63.178;14.652;2024-03-29T02:23:43;12.13;;;8.40;;
72051;SDS011;68254;63.178;14.652;2024-03-29T02:26:13;10.20;;;6.27;;
72051;SDS011;68254;63.178;14.652;2024-03-29T02:32:20;11.60;;;7.20;;
72051;SDS011;68254;63.178;14.652;2024-03-29T02:34:46;10.80;;;6.33;;
72051;SDS011;68254;63.178;14.652;2024-03-29T02:37:36;9.43;;;6.20;;
72051;SDS011;68254;63.178;14.652;2024-03-29T02:40:24;10.93;;;5.73;;
72051;SDS011;68254;63.178;14.652;2024-03-29T02:43:03;11.50;;;6.68;;
72051;SDS011;68254;63.178;14.652;2024-03-29T02:45:28;8.67;;;4.70;;
72051;SDS011;68254;63.178;14.652;2024-03-29T02:47:57;9.23;;;4.73;;
72051;SDS011;68254;63.178;14.652;2024-03-29T02:50:57;9.13;;;4.67;;
72051;SDS011;68254;63.178;14.652;2024-03-29T02:53:22;7.17;;;4.57;;
72051;SDS011;68254;63.178;14.652;2024-03-29T02:55:48;8.17;;;4.00;;
72051;SDS011;68254;63.178;14.652;2024-03-29T02:58:14;6.20;;;3.57;;
72051;SDS011;68254;63.178;14.652;2024-03-29T03:00:41;6.37;;;4.23;;
72051;SDS011;68254;63.178;14.652;2024-03-29T03:06:11;9.23;;;5.00;;
72051;SDS011;68254;63.178;14.652;2024-03-29T03:08:40;7.00;;;4.37;;
72051;SDS011;68254;63.178;14.652;2024-03-29T03:11:24;5.33;;;3.93;;
72051;SDS011;68254;63.178;14.652;2024-03-29T03:13:50;4.47;;;2.97;;
72051;SDS011;68254;63.178;14.652;2024-03-29T03:19:36;5.90;;;3.93;;
72051;SDS011;68254;63.178;14.652;2024-03-29T03:22:03;7.40;;;4.40;;
72051;SDS011;68254;63.178;14.652;2024-03-29T03:24:28;6.40;;;4.00;;
72051;SDS011;68254;63.178;14.652;2024-03-29T03:26:54;6.10;;;3.83;;
72051;SDS011;68254;63.178;14.652;2024-03-29T03:29:20;6.27;;;3.93;;
72051;SDS011;68254;63.178;14.652;2024-03-29T03:31:46;7.50;;;4.27;;
72051;SDS011;68254;63.178;14.652;2024-03-29T03:34:11;5.17;;;3.27;;
72051;SDS011;68254;63.178;14.652;2024-03-29T03:36:38;5.17;;;2.97;;
72051;SDS011;68254;63.178;14.652;2024-03-29T03:39:04;6.03;;;3.77;;
72051;SDS011;68254;63.178;14.652;2024-03-29T03:41:30;6.43;;;3.97;;
72051;SDS011;68254;63.178;14.652;2024-03-29T03:43:56;3.83;;;2.77;;
72051;SDS011;68254;63.178;14.652;2024-03-29T03:46:22;5.40;;;3.20;;
72051;SDS011;68254;63.178;14.652;2024-03-29T03:48:48;4.87;;;2.70;;
72051;SDS011;68254;63.178;14.652;2024-03-29T03:51:15;3.50;;;2.60;;
72051;SDS011;68254;63.178;14.652;2024-03-29T03:53:41;4.90;;;3.57;;
72051;SDS011;68254;63.178;14.652;2024-03-29T03:56:06;4.40;;;2.67;;
72051;SDS011;68254;63.178;14.652;2024-03-29T03:58:34;4.13;;;2.67;;
72051;SDS011;68254;63.178;14.652;2024-03-29T04:01:24;4.80;;;2.57;;
72051;SDS011;68254;63.178;14.652;2024-03-29T04:03:50;4.57;;;2.80;;
72051;SDS011;68254;63.178;14.652;2024-03-29T04:06:15;3.63;;;2.47;;
72051;SDS011;68254;63.178;14.652;2024-03-29T04:08:43;3.83;;;2.57;;
72051;SDS011;68254;63.178;14.652;2024-03-29T04:11:09;5.32;;;3.40;;
72051;SDS011;68254;63.178;14.652;2024-03-29T04:13:35;3.90;;;2.33;;
72051;SDS011;68254;63.178;14.652;2024-03-29T04:16:04;3.40;;;2.20;;
72051;SDS011;68254;63.178;14.652;2024-03-29T04:18:31;3.60;;;2.10;;
72051;SDS011;68254;63.178;14.652;2024-03-29T04:20:58;3.70;;;1.93;;
72051;SDS011;68254;63.178;14.652;2024-03-29T04:23:27;3.17;;;2.53;;
72051;SDS011;68254;63.178;14.652;2024-03-29T04:25:54;3.17;;;2.07;;
72051;SDS011;68254;63.178;14.652;2024-03-29T04:28:45;3.00;;;1.80;;
72051;SDS011;68254;63.178;14.652;2024-03-29T04:31:11;3.33;;;2.17;;
72051;SDS011;68254;63.178;14.652;2024-03-29T04:33:37;2.37;;;1.80;;
72051;SDS011;68254;63.178;14.652;2024-03-29T04:36:03;3.90;;;2.33;;
72051;SDS011;68254;63.178;14.652;2024-03-29T04:38:30;3.97;;;1.97;;
72051;SDS011;68254;63.178;14.652;2024-03-29T04:40:57;2.30;;;1.70;;
72051;SDS011;68254;63.178;14.652;2024-03-29T04:43:24;4.60;;;2.23;;
72051;SDS011;68254;63.178;14.652;2024-03-29T04:46:08;2.90;;;1.27;;
72051;SDS011;68254;63.178;14.652;2024-03-29T04:48:41;1.92;;;1.40;;
72051;SDS011;68254;63.178;14.652;2024-03-29T04:54:19;2.17;;;1.40;;
72051;SDS011;68254;63.178;14.652;2024-03-29T04:56:45;2.53;;;1.70;;
72051;SDS011;68254;63.178;14.652;2024-03-29T05:01:47;3.00;;;2.17;;
72051;SDS011;68254;63.178;14.652;2024-03-29T05:04:16;2.57;;;1.47;;
72051;SDS011;68254;63.178;14.652;2024-03-29T05:06:44;2.03;;;1.40;;
72051;SDS011;68254;63.178;14.652;2024-03-29T05:09:33;2.10;;;1.53;;
72051;SDS011;68254;63.178;14.652;2024-03-29T05:17:24;1.73;;;1.30;;
72051;SDS011;68254;63.178;14.652;2024-03-29T05:20:18;1.77;;;1.23;;
72051;SDS011;68254;63.178;14.652;2024-03-29T05:22:43;1.97;;;1.60;;
72051;SDS011;68254;63.178;14.652;2024-03-29T05:25:09;2.23;;;1.53;;
72051;SDS011;68254;63.178;14.652;2024-03-29T05:27:35;2.97;;;1.70;;
72051;SDS011;68254;63.178;14.652;2024-03-29T05:30:01;2.30;;;1.50;;
72051;SDS011;68254;63.178;14.652;2024-03-29T05:32:28;1.90;;;1.13;;
72051;SDS011;68254;63.178;14.652;2024-03-29T05:34:55;2.07;;;1.67;;
72051;SDS011;68254;63.178;14.652;2024-03-29T05:40:18;2.00;;;1.63;;
72051;SDS011;68254;63.178;14.652;2024-03-29T05:42:44;1.83;;;1.50;;
72051;SDS011;68254;63.178;14.652;2024-03-29T05:45:22;1.57;;;1.40;;
72051;SDS011;68254;63.178;14.652;2024-03-29T05:47:55;1.50;;;1.00;;
72051;SDS011;68254;63.178;14.652;2024-03-29T05:50:47;2.07;;;1.20;;
72051;SDS011;68254;63.178;14.652;2024-03-29T05:53:17;1.80;;;1.10;;
72051;SDS011;68254;63.178;14.652;2024-03-29T05:55:42;1.83;;;1.30;;
72051;SDS011;68254;63.178;14.652;2024-03-29T06:01:35;1.60;;;1.00;;
72051;SDS011;68254;63.178;14.652;2024-03-29T06:07:23;1.57;;;1.07;;
72051;SDS011;68254;63.178;14.652;2024-03-29T06:13:17;1.23;;;0.70;;
72051;SDS011;68254;63.178;14.652;2024-03-29T06:19:36;1.27;;;1.17;;
72051;SDS011;68254;63.178;14.652;2024-03-29T06:25:27;1.67;;;1.03;;
72051;SDS011;68254;63.178;14.652;2024-03-29T06:31:14;1.53;;;0.90;;
72051;SDS011;68254;63.178;14.652;2024-03-29T06:37:02;1.53;;;0.93;;
72051;SDS011;68254;63.178;14.652;2024-03-29T06:42:50;0.83;;;0.60;;
72051;SDS011;68254;63.178;14.652;2024-03-29T06:45:27;1.17;;;1.03;;
72051;SDS011;68254;63.178;14.652;2024-03-29T06:47:54;0.87;;;0.80;;
72051;SDS011;68254;63.178;14.652;2024-03-29T06:50:55;0.93;;;0.57;;
72051;SDS011;68254;63.178;14.652;2024-03-29T06:57:11;0.70;;;0.70;;
72051;SDS011;68254;63.178;14.652;2024-03-29T07:03:23;1.10;;;0.60;;
72051;SDS011;68254;63.178;14.652;2024-03-29T07:09:26;1.00;;;0.73;;
72051;SDS011;68254;63.178;14.652;2024-03-29T07:19:03;1.00;;;0.60;;
72051;SDS011;68254;63.178;14.652;2024-03-29T07:25:11;1.00;;;0.60;;
72051;SDS011;68254;63.178;14.652;2024-03-29T07:31:04;0.50;;;0.50;;
72051;SDS011;68254;63.178;14.652;2024-03-29T07:36:55;0.73;;;0.43;;
72051;SDS011;68254;63.178;14.652;2024-03-29T07:46:07;0.60;;;0.50;;
72051;SDS011;68254;63.178;14.652;2024-03-29T07:48:36;0.37;;;0.37;;
72051;SDS011;68254;63.178;14.652;2024-03-29T07:51:09;0.77;;;0.50;;
72051;SDS011;68254;63.178;14.652;2024-03-29T07:53:39;0.57;;;0.53;;
72051;SDS011;68254;63.178;14.652;2024-03-29T07:56:05;0.57;;;0.40;;
72051;SDS011;68254;63.178;14.652;2024-03-29T07:58:43;0.40;;;0.40;;
72051;SDS011;68254;63.178;14.652;2024-03-29T08:01:09;0.30;;;0.30;;
72051;SDS011;68254;63.178;14.652;2024-03-29T08:06:34;0.47;;;0.30;;
72051;SDS011;68254;63.178;14.652;2024-03-29T08:09:15;0.33;;;0.33;;
72051;SDS011;68254;63.178;14.652;2024-03-29T08:11:42;0.37;;;0.37;;
72051;SDS011;68254;63.178;14.652;2024-03-29T08:14:13;0.20;;;0.20;;
72051;SDS011;68254;63.178;14.652;2024-03-29T08:16:54;0.37;;;0.30;;
72051;SDS011;68254;63.178;14.652;2024-03-29T08:19:25;0.20;;;0.20;;
72051;SDS011;68254;63.178;14.652;2024-03-29T08:22:05;0.30;;;0.30;;
72051;SDS011;68254;63.178;14.652;2024-03-29T08:24:34;0.30;;;0.30;;
72051;SDS011;68254;63.178;14.652;2024-03-29T08:27:21;0.20;;;0.20;;
72051;SDS011;68254;63.178;14.652;2024-03-29T08:29:47;0.20;;;0.20;;
72051;SDS011;68254;63.178;14.652;2024-03-29T08:32:40;0.52;;;0.22;;
72051;SDS011;68254;63.178;14.652;2024-03-29T08:35:34;0.13;;;0.13;;
72051;SDS011;68254;63.178;14.652;2024-03-29T08:38:05;0.30;;;0.20;;
72051;SDS011;68254;63.178;14.652;2024-03-29T08:40:32;0.20;;;0.20;;
72051;SDS011;68254;63.178;14.652;2024-03-29T08:45:35;0.10;;;0.10;;
72051;SDS011;68254;63.178;14.652;2024-03-29T08:48:15;0.10;;;0.10;;
72051;SDS011;68254;63.178;14.652;2024-03-29T08:51:20;0.10;;;0.10;;
72051;SDS011;68254;63.178;14.652;2024-03-29T08:57:14;0.10;;;0.10;;
72051;SDS011;68254;63.178;14.652;2024-03-29T09:03:07;0.50;;;0.20;;
72051;SDS011;68254;63.178;14.652;2024-03-29T09:08:54;0.10;;;0.10;;
72051;SDS011;68254;63.178;14.652;2024-03-29T09:14:45;0.10;;;0.10;;
72051;SDS011;68254;63.178;14.652;2024-03-29T09:21:18;0.10;;;0.10;;
72051;SDS011;68254;63.178;14.652;2024-03-29T09:27:06;0.13;;;0.13;;
72051;SDS011;68254;63.178;14.652;2024-03-29T09:29:32;0.30;;;0.20;;
72051;SDS011;68254;63.178;14.652;2024-03-29T09:31:58;0.10;;;0.10;;
72051;SDS011;68254;63.178;14.652;2024-03-29T09:34:29;0.10;;;0.10;;
72051;SDS011;68254;63.178;14.652;2024-03-29T09:37:08;0.10;;;0.10;;
72051;SDS011;68254;63.178;14.652;2024-03-29T09:39:34;0.13;;;0.13;;
72051;SDS011;68254;63.178;14.652;2024-03-29T09:41:59;0.10;;;0.10;;
72051;SDS011;68254;63.178;14.652;2024-03-29T09:44:31;0.10;;;0.10;;
72051;SDS011;68254;63.178;14.652;2024-03-29T09:47:22;0.10;;;0.10;;
72051;SDS011;68254;63.178;14.652;2024-03-29T09:49:50;0.20;;;0.13;;
72051;SDS011;68254;63.178;14.652;2024-03-29T09:52:19;0.10;;;0.10;;
72051;SDS011;68254;63.178;14.652;2024-03-29T09:54:46;0.20;;;0.20;;
72051;SDS011;68254;63.178;14.652;2024-03-29T09:57:13;0.10;;;0.10;;
72051;SDS011;68254;63.178;14.652;2024-03-29T10:02:31;0.10;;;0.10;;
72051;SDS011;68254;63.178;14.652;2024-03-29T10:05:29;0.10;;;0.10;;
72051;SDS011;68254;63.178;14.652;2024-03-29T10:08:01;0.20;;;0.20;;
72051;SDS011;68254;63.178;14.652;2024-03-29T10:10:43;0.37;;;0.20;;
72051;SDS011;68254;63.178;14.652;2024-03-29T10:13:30;0.20;;;0.10;;
72051;SDS011;68254;63.178;14.652;2024-03-29T10:15:59;0.10;;;0.10;;
72051;SDS011;68254;63.178;14.652;2024-03-29T10:23:40;0.83;;;0.10;;
72051;SDS011;68254;63.178;14.652;2024-03-29T10:26:08;0.20;;;0.10;;
72051;SDS011;68254;63.178;14.652;2024-03-29T10:28:34;0.20;;;0.20;;
72051;SDS011;68254;63.178;14.652;2024-03-29T10:31:02;0.80;;;0.13;;
72051;SDS011;68254;63.178;14.652;2024-03-29T10:33:30;0.10;;;0.10;;
72051;SDS011;68254;63.178;14.652;2024-03-29T10:39:32;0.20;;;0.20;;
72051;SDS011;68254;63.178;14.652;2024-03-29T10:42:00;0.20;;;0.10;;
72051;SDS011;68254;63.178;14.652;2024-03-29T10:44:28;0.20;;;0.20;;
72051;SDS011;68254;63.178;14.652;2024-03-29T10:46:57;0.10;;;0.10;;
72051;SDS011;68254;63.178;14.652;2024-03-29T10:51:59;0.10;;;0.10;;
72051;SDS011;68254;63.178;14.652;2024-03-29T10:54:25;0.10;;;0.10;;
72051;SDS011;68254;63.178;14.652;2024-03-29T10:57:10;0.10;;;0.10;;
72051;SDS011;68254;63.178;14.652;2024-03-29T11:00:02;0.10;;;0.10;;
72051;SDS011;68254;63.178;14.652;2024-03-29T11:02:42;0.10;;;0.10;;
72051;SDS011;68254;63.178;14.652;2024-03-29T11:05:16;0.10;;;0.10;;
72051;SDS011;68254;63.178;14.652;2024-03-29T11:08:01;0.10;;;0.10;;
72051;SDS011;68254;63.178;14.652;2024-03-29T11:11:06;0.10;;;0.10;;
72051;SDS011;68254;63.178;14.652;2024-03-29T11:17:02;0.10;;;0.10;;
72051;SDS011;68254;63.178;14.652;2024-03-29T11:19:36;0.20;;;0.20;;
72051;SDS011;68254;63.178;14.652;2024-03-29T11:24:38;0.17;;;0.17;;
72051;SDS011;68254;63.178;14.652;2024-03-29T11:27:11;0.20;;;0.20;;
72051;SDS011;68254;63.178;14.652;2024-03-29T11:29:43;0.10;;;0.10;;
72051;SDS011;68254;63.178;14.652;2024-03-29T11:32:34;0.10;;;0.10;;
72051;SDS011;68254;63.178;14.652;2024-03-29T11:38:00;0.10;;;0.10;;
72051;SDS011;68254;63.178;14.652;2024-03-29T11:42:56;0.17;;;0.17;;
72051;SDS011;68254;63.178;14.652;2024-03-29T11:45:26;0.10;;;0.10;;
72051;SDS011;68254;63.178;14.652;2024-03-29T11:48:01;0.27;;;0.23;;
72051;SDS011;68254;63.178;14.652;2024-03-29T11:50:52;0.10;;;0.10;;
72051;SDS011;68254;63.178;14.652;2024-03-29T11:53:18;0.10;;;0.10;;
72051;SDS011;68254;63.178;14.652;2024-03-29T11:55:45;0.57;;;0.10;;
72051;SDS011;68254;63.178;14.652;2024-03-29T11:58:11;0.10;;;0.10;;
72051;SDS011;68254;63.178;14.652;2024-03-29T12:00:40;0.10;;;0.10;;
72051;SDS011;68254;63.178;14.652;2024-03-29T12:03:09;0.10;;;0.10;;
72051;SDS011;68254;63.178;14.652;2024-03-29T12:05:35;0.10;;;0.10;;
72051;SDS011;68254;63.178;14.652;2024-03-29T12:08:01;0.10;;;0.10;;
72051;SDS011;68254;63.178;14.652;2024-03-29T12:10:43;0.40;;;0.10;;
72051;SDS011;68254;63.178;14.652;2024-03-29T12:13:10;0.10;;;0.10;;
72051;SDS011;68254;63.178;14.652;2024-03-29T12:15:36;0.10;;;0.10;;
72051;SDS011;68254;63.178;14.652;2024-03-29T12:18:08;0.00;;;0.00;;
72051;SDS011;68254;63.178;14.652;2024-03-29T12:23:27;0.00;;;0.00;;
72051;SDS011;68254;63.178;14.652;2024-03-29T12:25:54;0.10;;;0.10;;
72051;SDS011;68254;63.178;14.652;2024-03-29T12:31:58;0.10;;;0.10;;
72051;SDS011;68254;63.178;14.652;2024-03-29T12:35:06;0.00;;;0.00;;
72051;SDS011;68254;63.178;14.652;2024-03-29T12:38:12;0.10;;;0.10;;
72051;SDS011;68254;63.178;14.652;2024-03-29T12:40:57;0.10;;;0.10;;
72051;SDS011;68254;63.178;14.652;2024-03-29T12:43:38;0.10;;;0.10;;
72051;SDS011;68254;63.178;14.652;2024-03-29T12:48:58;0.10;;;0.10;;
72051;SDS011;68254;63.178;14.652;2024-03-29T12:51:24;0.10;;;0.10;;
72051;SDS011;68254;63.178;14.652;2024-03-29T12:53:50;0.10;;;0.10;;
72051;SDS011;68254;63.178;14.652;2024-03-29T12:56:16;0.10;;;0.10;;
72051;SDS011;68254;63.178;14.652;2024-03-29T12:59:06;0.10;;;0.10;;
72051;SDS011;68254;63.178;14.652;2024-03-29T13:01:38;0.10;;;0.10;;
72051;SDS011;68254;63.178;14.652;2024-03-29T13:04:07;0.03;;;0.03;;
72051;SDS011;68254;63.178;14.652;2024-03-29T13:06:35;0.10;;;0.10;;
72051;SDS011;68254;63.178;14.652;2024-03-29T13:09:01;0.10;;;0.10;;
72051;SDS011;68254;63.178;14.652;2024-03-29T13:11:28;0.10;;;0.10;;
72051;SDS011;68254;63.178;14.652;2024-03-29T13:13:56;0.17;;;0.10;;
72051;SDS011;68254;63.178;14.652;2024-03-29T13:16:21;0.10;;;0.10;;
72051;SDS011;68254;63.178;14.652;2024-03-29T13:18:53;0.13;;;0.10;;
72051;SDS011;68254;63.178;14.652;2024-03-29T13:21:31;0.20;;;0.20;;
72051;SDS011;68254;63.178;14.652;2024-03-29T13:24:02;0.10;;;0.10;;
72051;SDS011;68254;63.178;14.652;2024-03-29T13:26:28;0.10;;;0.10;;
72051;SDS011;68254;63.178;14.652;2024-03-29T13:28:56;0.10;;;0.10;;
72051;SDS011;68254;63.178;14.652;2024-03-29T13:31:22;0.00;;;0.00;;
72051;SDS011;68254;63.178;14.652;2024-03-29T13:33:49;0.10;;;0.10;;
72051;SDS011;68254;63.178;14.652;2024-03-29T13:36:15;0.20;;;0.20;;
72051;SDS011;68254;63.178;14.652;2024-03-29T13:38:53;2.45;;;0.20;;
72051;SDS011;68254;63.178;14.652;2024-03-29T13:41:19;0.10;;;0.10;;
72051;SDS011;68254;63.178;14.652;2024-03-29T13:43:51;0.10;;;0.10;;
72051;SDS011;68254;63.178;14.652;2024-03-29T13:46:38;0.20;;;0.10;;
72051;SDS011;68254;63.178;14.652;2024-03-29T13:49:05;0.10;;;0.10;;
72051;SDS011;68254;63.178;14.652;2024-03-29T13:51:31;0.10;;;0.10;;
72051;SDS011;68254;63.178;14.652;2024-03-29T13:53:57;0.10;;;0.10;;
72051;SDS011;68254;63.178;14.652;2024-03-29T13:56:24;0.20;;;0.10;;
72051;SDS011;68254;63.178;14.652;2024-03-29T13:59:12;0.10;;;0.10;;
72051;SDS011;68254;63.178;14.652;2024-03-29T14:01:38;0.10;;;0.10;;
72051;SDS011;68254;63.178;14.652;2024-03-29T14:04:04;0.20;;;0.20;;
72051;SDS011;68254;63.178;14.652;2024-03-29T14:06:36;0.10;;;0.10;;
72051;SDS011;68254;63.178;14.652;2024-03-29T14:09:03;0.20;;;0.10;;
72051;SDS011;68254;63.178;14.652;2024-03-29T14:11:29;0.33;;;0.10;;
72051;SDS011;68254;63.178;14.652;2024-03-29T14:17:04;0.10;;;0.10;;
72051;SDS011;68254;63.178;14.652;2024-03-29T14:19:32;0.10;;;0.10;;
72051;SDS011;68254;63.178;14.652;2024-03-29T14:21:59;0.10;;;0.10;;
72051;SDS011;68254;63.178;14.652;2024-03-29T14:24:26;0.10;;;0.10;;
72051;SDS011;68254;63.178;14.652;2024-03-29T14:26:53;0.10;;;0.10;;
72051;SDS011;68254;63.178;14.652;2024-03-29T14:29:19;0.10;;;0.10;;
72051;SDS011;68254;63.178;14.652;2024-03-29T14:31:47;0.10;;;0.10;;
72051;SDS011;68254;63.178;14.652;2024-03-29T14:37:12;0.08;;;0.08;;
72051;SDS011;68254;63.178;14.652;2024-03-29T14:42:34;0.10;;;0.10;;
72051;SDS011;68254;63.178;14.652;2024-03-29T14:45:03;0.10;;;0.10;;
72051;SDS011;68254;63.178;14.652;2024-03-29T14:47:31;0.17;;;0.10;;
72051;SDS011;68254;63.178;14.652;2024-03-29T14:49:58;0.10;;;0.10;;
72051;SDS011;68254;63.178;14.652;2024-03-29T14:52:24;0.10;;;0.10;;
72051;SDS011;68254;63.178;14.652;2024-03-29T14:54:50;0.03;;;0.03;;
72051;SDS011;68254;63.178;14.652;2024-03-29T14:57:19;0.47;;;0.10;;
72051;SDS011;68254;63.178;14.652;2024-03-29T15:02:19;0.10;;;0.10;;
72051;SDS011;68254;63.178;14.652;2024-03-29T15:04:46;0.57;;;0.10;;
72051;SDS011;68254;63.178;14.652;2024-03-29T15:07:16;0.10;;;0.10;;
72051;SDS011;68254;63.178;14.652;2024-03-29T15:09:42;0.10;;;0.10;;
72051;SDS011;68254;63.178;14.652;2024-03-29T15:12:08;0.00;;;0.00;;
72051;SDS011;68254;63.178;14.652;2024-03-29T15:14:34;0.10;;;0.10;;
72051;SDS011;68254;63.178;14.652;2024-03-29T15:17:08;0.00;;;0.00;;
72051;SDS011;68254;63.178;14.652;2024-03-29T15:19:35;0.10;;;0.10;;
72051;SDS011;68254;63.178;14.652;2024-03-29T15:24:53;0.10;;;0.10;;
72051;SDS011;68254;63.178;14.652;2024-03-29T15:27:19;0.10;;;0.10;;
72051;SDS011;68254;63.178;14.652;2024-03-29T15:30:04;0.10;;;0.10;;
72051;SDS011;68254;63.178;14.652;2024-03-29T15:32:30;0.10;;;0.10;;
72051;SDS011;68254;63.178;14.652;2024-03-29T15:34:57;0.07;;;0.07;;
72051;SDS011;68254;63.178;14.652;2024-03-29T15:37:31;0.00;;;0.00;;
72051;SDS011;68254;63.178;14.652;2024-03-29T15:40:01;0.10;;;0.10;;
72051;SDS011;68254;63.178;14.652;2024-03-29T15:42:28;0.10;;;0.10;;
72051;SDS011;68254;63.178;14.652;2024-03-29T15:44:54;0.10;;;0.10;;
72051;SDS011;68254;63.178;14.652;2024-03-29T15:47:21;0.20;;;0.20;;
72051;SDS011;68254;63.178;14.652;2024-03-29T15:49:47;0.10;;;0.10;;
72051;SDS011;68254;63.178;14.652;2024-03-29T15:52:12;0.10;;;0.10;;
72051;SDS011;68254;63.178;14.652;2024-03-29T15:54:40;0.10;;;0.10;;
72051;SDS011;68254;63.178;14.652;2024-03-29T15:57:21;0.10;;;0.10;;
72051;SDS011;68254;63.178;14.652;2024-03-29T16:00:06;0.10;;;0.10;;
72051;SDS011;68254;63.178;14.652;2024-03-29T16:02:33;0.40;;;0.10;;
72051;SDS011;68254;63.178;14.652;2024-03-29T16:05:10;0.10;;;0.10;;
72051;SDS011;68254;63.178;14.652;2024-03-29T16:07:44;0.13;;;0.13;;
72051;SDS011;68254;63.178;14.652;2024-03-29T16:10:11;0.87;;;0.10;;
72051;SDS011;68254;63.178;14.652;2024-03-29T16:12:48;0.13;;;0.13;;
72051;SDS011;68254;63.178;14.652;2024-03-29T16:15:24;0.10;;;0.10;;
72051;SDS011;68254;63.178;14.652;2024-03-29T16:17:52;0.10;;;0.10;;
72051;SDS011;68254;63.178;14.652;2024-03-29T16:20:17;0.10;;;0.10;;
72051;SDS011;68254;63.178;14.652;2024-03-29T16:22:43;0.10;;;0.10;;
72051;SDS011;68254;63.178;14.652;2024-03-29T16:25:10;0.10;;;0.10;;
72051;SDS011;68254;63.178;14.652;2024-03-29T16:27:35;0.10;;;0.10;;
72051;SDS011;68254;63.178;14.652;2024-03-29T16:30:41;0.10;;;0.10;;
72051;SDS011;68254;63.178;14.652;2024-03-29T16:33:07;0.10;;;0.10;;
72051;SDS011;68254;63.178;14.652;2024-03-29T16:35:34;0.10;;;0.10;;
72051;SDS011;68254;63.178;14.652;2024-03-29T16:38:01;0.10;;;0.10;;
72051;SDS011;68254;63.178;14.652;2024-03-29T16:40:33;0.10;;;0.10;;
72051;SDS011;68254;63.178;14.652;2024-03-29T16:43:00;0.10;;;0.10;;
72051;SDS011;68254;63.178;14.652;2024-03-29T16:45:29;0.25;;;0.10;;
72051;SDS011;68254;63.178;14.652;2024-03-29T16:47:55;0.10;;;0.10;;
72051;SDS011;68254;63.178;14.652;2024-03-29T16:50:21;0.10;;;0.10;;
72051;SDS011;68254;63.178;14.652;2024-03-29T16:52:47;0.10;;;0.10;;
72051;SDS011;68254;63.178;14.652;2024-03-29T16:55:35;0.10;;;0.10;;
72051;SDS011;68254;63.178;14.652;2024-03-29T17:01:25;0.17;;;0.10;;
72051;SDS011;68254;63.178;14.652;2024-03-29T17:07:13;0.13;;;0.13;;
72051;SDS011;68254;63.178;14.652;2024-03-29T17:13:00;0.93;;;0.10;;
72051;SDS011;68254;63.178;14.652;2024-03-29T17:15:28;0.20;;;0.20;;
72051;SDS011;68254;63.178;14.652;2024-03-29T17:21:16;0.10;;;0.10;;
72051;SDS011;68254;63.178;14.652;2024-03-29T17:27:12;0.10;;;0.10;;
72051;SDS011;68254;63.178;14.652;2024-03-29T17:33:16;0.20;;;0.10;;
72051;SDS011;68254;63.178;14.652;2024-03-29T17:39:11;0.20;;;0.13;;
72051;SDS011;68254;63.178;14.652;2024-03-29T17:44:59;0.20;;;0.20;;
72051;SDS011;68254;63.178;14.652;2024-03-29T17:50:47;0.10;;;0.10;;
72051;SDS011;68254;63.178;14.652;2024-03-29T17:53:15;0.10;;;0.10;;
72051;SDS011;68254;63.178;14.652;2024-03-29T17:56:44;0.10;;;0.10;;
72051;SDS011;68254;63.178;14.652;2024-03-29T17:59:09;0.20;;;0.10;;
72051;SDS011;68254;63.178;14.652;2024-03-29T18:05:01;0.17;;;0.17;;
72051;SDS011;68254;63.178;14.652;2024-03-29T18:11:02;0.10;;;0.10;;
72051;SDS011;68254;63.178;14.652;2024-03-29T18:16:54;0.10;;;0.10;;
72051;SDS011;68254;63.178;14.652;2024-03-29T18:22:41;0.10;;;0.10;;
72051;SDS011;68254;63.178;14.652;2024-03-29T18:28:29;0.17;;;0.17;;
72051;SDS011;68254;63.178;14.652;2024-03-29T18:34:16;0.00;;;0.00;;
72051;SDS011;68254;63.178;14.652;2024-03-29T18:40:26;0.10;;;0.10;;
72051;SDS011;68254;63.178;14.652;2024-03-29T18:46:25;0.53;;;0.10;;